EW3958 Weather Reports


Display with metric or nautical units.
time (UTC)temp
F
wind
direction
speed
MPH
gust
MPH
rain 1hr
in
rain 24hr
in
rain mn
in
humidity
%
barometer
mb
20260906202502 83 135 11.0 30.0 0.00 0.00 0.00 59 1014.8
20260906202004 83 137 11.0 30.0 0.00 0.00 0.00 58 1014.9
20260906201502 84 138 10.0 17.0 0.00 0.00 0.00 59 1014.9
20260906201003 83 134 10.0 20.0 0.00 0.00 0.00 59 1014.9
20260906200502 83 137 10.0 20.0 0.00 0.00 0.00 58 1014.9
20260906200004 83 144 11.0 18.0 0.00 0.00 0.00 58 1015.0
20260906195502 82 142 12.0 20.0 0.00 0.00 0.00 57 1015.0
20260906195003 83 130 14.0 21.0 0.00 0.00 0.00 57 1015.0
20260906194502 82 127 14.0 21.0 0.00 0.00 0.00 60 1015.2
20260906194003 82 121 14.0 21.0 0.00 0.00 0.00 59 1015.2
20260906193502 82 121 16.0 24.0 0.00 0.00 0.00 59 1015.3
20260906193003 81 127 16.0 24.0 0.00 0.00 0.00 60 1015.4
20260906192502 81 121 16.0 23.0 0.00 0.00 0.00 59 1015.4
20260906192003 82 119 18.0 25.0 0.00 0.00 0.00 60 1015.4
20260906191502 81 121 21.0 31.0 0.00 0.00 0.00 60 1015.6
20260906191003 81 115 19.0 31.0 0.00 0.00 0.00 60 1015.7
20260906190502 81 116 19.0 30.0 0.00 0.00 0.00 59 1015.7
20260906190003 81 121 21.0 30.0 0.00 0.00 0.00 60 1015.8
20260906185502 80 123 19.0 28.0 0.00 0.00 0.00 61 1016.0
20260906184502 80 110 23.0 30.0 0.00 0.00 0.00 64 1016.1
20260906182502 80 109 21.0 33.0 0.00 0.00 0.00 58 1016.3
20260906181502 80 107 19.0 31.0 0.00 0.00 0.00 58 1016.5
20260906181004 81 107 19.0 28.0 0.00 0.00 0.00 57 1016.6
20260906180502 82 109 18.0 28.0 0.00 0.00 0.00 56 1016.6
20260906180004 82 117 18.0 22.0 0.00 0.00 0.00 57 1016.6
20260906175502 82 120 16.0 21.0 0.00 0.00 0.00 56 1016.7
20260906175004 83 119 14.0 22.0 0.00 0.00 0.00 54 1016.6
20260906174502 83 124 15.0 28.0 0.00 0.00 0.00 56 1016.7
20260906174004 83 124 15.0 28.0 0.00 0.00 0.00 54 1016.8
20260906173502 82 126 15.0 25.0 0.00 0.00 0.00 56 1016.9
20260906173004 83 124 15.0 25.0 0.00 0.00 0.00 52 1016.9
20260906172502 83 127 11.0 20.0 0.00 0.00 0.00 52 1016.8
20260906171502 83 127 12.0 20.0 0.00 0.00 0.00 53 1017.0
20260906171004 83 131 11.0 20.0 0.00 0.00 0.00 54 1017.0
20260906170502 82 135 10.0 20.0 0.00 0.00 0.00 53 1017.0
20260906170004 82 138 10.0 20.0 0.00 0.00 0.00 52 1017.0
20260906165004 83 131 12.0 23.0 0.00 0.00 0.00 54 1016.9
20260906164503 82 126 12.0 20.0 0.00 0.00 0.00 52 1016.8
20260906164004 83 119 12.0 20.0 0.00 0.00 0.00 53 1016.7
20260906163004 82 124 11.0 17.0 0.00 0.00 0.00 51 1017.0
20260906162502 82 128 10.0 17.0 0.00 0.00 0.00 52 1017.0
20260906162003 82 131 10.0 15.0 0.00 0.00 0.00 51 1017.1
20260906161502 82 124 11.0 17.0 0.00 0.00 0.00 51 1017.0
20260906161004 81 126 10.0 17.0 0.00 0.00 0.00 53 1017.0
20260906160502 81 127 8.0 14.0 0.00 0.00 0.00 52 1017.1
20260906160004 81 128 8.0 15.0 0.00 0.00 0.00 52 1017.1
20260906155502 81 134 8.0 15.0 0.00 0.00 0.00 52 1017.1
20260906155004 81 130 10.0 15.0 0.00 0.00 0.00 52 1017.1
20260906154502 81 121 12.0 20.0 0.00 0.00 0.00 52 1017.1
20260906154004 80 117 15.0 20.0 0.00 0.00 0.00 53 1017.0
20260906153004 80 112 11.0 16.0 0.00 0.00 0.00 53 1017.0
20260906152502 80 116 11.0 15.0 0.00 0.00 0.00 53 1017.0
20260906152004 80 113 12.0 16.0 0.00 0.00 0.00 54 1016.8
20260906151502 79 111 14.0 17.0 0.00 0.00 0.00 53 1016.8
20260906151004 79 108 14.0 17.0 0.00 0.00 0.00 54 1016.9
20260906150004 79 106 12.0 21.0 0.00 0.00 0.00 57 1017.1
20260906145502 78 107 11.0 15.0 0.00 0.00 0.00 57 1017.1
20260906145004 77 105 8.0 12.0 0.00 0.00 0.00 60 1017.2
20260906144004 76 86 5.0 8.0 0.00 0.00 0.00 62 1017.4
20260906143503 76 69 4.0 8.0 0.00 0.00 0.00 64 1017.3
20260906142004 77 65 3.0 5.0 0.00 0.00 0.00 63 1017.1
20260906141502 76 75 1.0 5.0 0.00 0.00 0.00 64 1017.1
20260906141004 74 78 1.0 2.0 0.00 0.00 0.00 68 1017.1
20260906140502 73 76 1.0 3.0 0.00 0.00 0.00 68 1017.0
20260906140003 72 73 1.0 3.0 0.00 0.00 0.00 73 1016.9
20260906135004 72 67 3.0 5.0 0.00 0.00 0.00 69 1016.8
20260906134502 72 79 3.0 5.0 0.00 0.00 0.00 71 1016.7
20260906134004 71 115 1.0 5.0 0.00 0.00 0.00 71 1016.6
20260906133503 72 126 1.0 3.0 0.00 0.00 0.00 71 1016.5
20260906132004 71 331 3.0 6.0 0.00 0.00 0.00 69 1016.4
20260906131502 72 16 3.0 6.0 0.00 0.00 0.00 69 1016.7
20260906131004 71 334 4.0 9.0 0.00 0.00 0.00 69 1016.7
20260906130004 71 325 5.0 9.0 0.00 0.00 0.00 68 1016.5
20260906124503 74 78 4.0 5.0 0.00 0.00 0.00 60 1016.3
20260906124004 73 89 3.0 5.0 0.00 0.00 0.00 65 1016.4
20260906123502 72 104 1.0 2.0 0.00 0.00 0.00 68 1016.3
20260906123004 72 112 3.0 5.0 0.00 0.00 0.00 66 1016.2
20260906122502 73 127 1.0 5.0 0.00 0.00 0.00 64 1016.1
20260906122004 72 270 3.0 7.0 0.00 0.00 0.00 67 1016.0
20260906121503 74 280 4.0 7.0 0.00 0.00 0.00 61 1015.6
20260906121004 73 296 5.0 8.0 0.00 0.00 0.00 62 1015.7
20260906120502 74 302 4.0 8.0 0.00 0.00 0.00 61 1015.7
20260906120004 74 281 3.0 8.0 0.00 0.00 0.00 60 1015.7
20260906115503 75 224 5.0 13.0 0.00 0.00 0.00 59 1016.0
20260906114503 75 226 8.0 16.0 0.00 0.00 0.00 59 1015.8
20260906114004 76 211 7.0 14.0 0.00 0.00 0.00 57 1015.9
20260906113503 75 223 7.0 12.0 0.00 0.00 0.00 58 1015.7
20260906113004 76 249 10.0 16.0 0.00 0.00 0.00 54 1015.7
20260906112502 76 254 11.0 16.0 0.00 0.00 0.00 54 1015.7
20260906112004 76 269 11.0 17.0 0.00 0.00 0.00 57 1016.0
20260906111502 76 270 12.0 17.0 0.00 0.00 0.00 56 1016.0
20260906111004 76 265 11.0 15.0 0.00 0.00 0.00 56 1016.1
20260906110502 76 266 10.0 14.0 0.00 0.00 0.00 54 1016.0
20260906110004 77 248 7.0 15.0 0.00 0.00 0.00 52 1015.9
20260906105004 76 228 5.0 10.0 0.00 0.00 0.00 54 1015.8
20260906104503 76 262 7.0 13.0 0.00 0.00 0.00 56 1015.9
20260906104003 76 272 7.0 13.0 0.00 0.00 0.00 59 1015.8
20260906103502 76 229 4.0 12.0 0.00 0.00 0.00 60 1015.7
20260906103004 75 280 8.0 20.0 0.00 0.00 0.00 61 1015.3
20260906102503 76 297 12.0 20.0 0.00 0.00 0.00 60 1015.2
20260906102004 74 288 11.0 18.0 0.00 0.00 0.00 66 1015.7
20260906101502 74 242 11.0 17.0 0.00 0.00 0.00 67 1015.5
20260906101004 74 168 12.0 25.0 0.00 0.00 0.00 68 1015.0
20260906100502 74 152 11.0 25.0 0.00 0.00 0.00 68 1014.3
20260906100004 75 135 10.0 18.0 0.00 0.00 0.00 75 1013.7
20260906095503 75 123 10.0 14.0 0.00 0.00 0.00 82 1013.8
20260906094502 74 114 5.0 12.0 0.00 0.00 0.00 88 1014.2
20260906094004 74 114 8.0 10.0 0.00 0.00 0.00 89 1014.2
20260906093503 74 116 8.0 10.0 0.00 0.00 0.00 89 1014.3
20260906093003 74 112 7.0 10.0 0.00 0.00 0.00 89 1014.2
20260906092503 74 111 5.0 10.0 0.00 0.00 0.00 88 1014.0
20260906092003 74 116 4.0 8.0 0.00 0.00 0.00 89 1014.0
20260906091502 74 114 4.0 8.0 0.00 0.00 0.00 89 1014.2
20260906091004 74 111 4.0 8.0 0.00 0.00 0.00 89 1014.3
20260906090502 72 123 1.0 7.0 0.00 0.00 0.00 92 1014.5
20260906090003 72 297 1.0 3.0 0.00 0.00 0.00 92 1014.6
20260906085502 73 4 1.0 3.0 0.00 0.00 0.00 92 1014.6
20260906085004 73 88 1.0 3.0 0.00 0.00 0.00 90 1014.7
20260906084503 74 117 0.0 3.0 0.00 0.00 0.00 90 1014.8
20260906084004 74 124 1.0 3.0 0.00 0.00 0.00 89 1014.9
20260906083004 74 124 1.0 2.0 0.00 0.00 0.00 89 1014.9
20260906082502 73 122 1.0 2.0 0.00 0.00 0.00 91 1014.9
20260906082004 73 123 0.0 2.0 0.00 0.00 0.00 92 1014.8
20260906081004 74 121 1.0 3.0 0.00 0.00 0.00 90 1014.8
20260906080502 74 125 1.0 6.0 0.00 0.00 0.00 88 1014.9
20260906080003 74 123 3.0 7.0 0.00 0.00 0.00 88 1015.1
20260906075502 75 125 4.0 8.0 0.00 0.00 0.00 88 1015.2
20260906074004 74 115 4.0 7.0 0.00 0.00 0.00 88 1015.5
20260906073502 75 113 5.0 8.0 0.00 0.00 0.00 88 1015.4
20260906073004 75 116 4.0 8.0 0.00 0.00 0.00 88 1015.5
20260906072503 75 109 1.0 5.0 0.00 0.00 0.00 87 1015.6
20260906072004 75 102 3.0 7.0 0.00 0.00 0.00 87 1015.6
20260906071503 75 106 4.0 7.0 0.00 0.00 0.00 87 1015.4
20260906071004 75 116 3.0 5.0 0.00 0.00 0.00 87 1015.3
20260906070503 75 105 4.0 6.0 0.00 0.00 0.00 86 1015.1
20260906070004 75 98 4.0 6.0 0.00 0.00 0.00 86 1015.1
20260906065503 76 114 5.0 9.0 0.00 0.00 0.00 86 1015.1
20260906065004 76 107 7.0 9.0 0.00 0.00 0.00 86 1014.8
20260906064502 76 104 7.0 10.0 0.00 0.00 0.00 84 1014.6
20260906064004 76 112 7.0 10.0 0.00 0.00 0.00 84 1014.9
20260906062503 76 110 5.0 10.0 0.00 0.00 0.00 84 1014.8
20260906062004 76 116 7.0 12.0 0.00 0.00 0.00 83 1015.0
20260906061502 76 121 8.0 12.0 0.00 0.00 0.00 83 1015.1
20260906061004 76 121 7.0 10.0 0.00 0.00 0.00 82 1015.1
20260906060004 77 121 5.0 8.0 0.00 0.00 0.00 81 1015.4
20260906055502 77 118 7.0 8.0 0.00 0.00 0.00 80 1015.2
20260906054004 78 106 7.0 9.0 0.00 0.00 0.00 79 1014.9
20260906053503 78 120 5.0 9.0 0.00 0.00 0.00 79 1014.9
20260906053004 78 148 3.0 8.0 0.00 0.00 0.00 78 1015.1
20260906052004 78 92 4.0 8.0 0.00 0.00 0.00 77 1014.8
20260906051503 78 99 5.0 12.0 0.00 0.00 0.00 77 1014.8
20260906051004 79 95 7.0 12.0 0.00 0.00 0.00 76 1014.4
20260906050502 79 90 5.0 12.0 0.00 0.00 0.00 76 1014.4
20260906045502 79 100 5.0 9.0 0.00 0.00 0.00 75 1014.8
20260906045004 80 100 7.0 12.0 0.00 0.00 0.00 73 1014.9
20260906044503 80 102 5.0 12.0 0.00 0.00 0.00 72 1014.9
20260906044004 80 103 7.0 13.0 0.00 0.00 0.00 73 1014.9
20260906043502 80 100 8.0 13.0 0.00 0.00 0.00 74 1014.8
20260906043004 79 99 8.0 13.0 0.00 0.00 0.00 74 1014.7
20260906042004 79 100 8.0 13.0 0.00 0.00 0.00 74 1014.8
20260906041503 79 95 8.0 13.0 0.00 0.00 0.00 75 1014.8
20260906041004 80 101 8.0 13.0 0.00 0.00 0.00 73 1014.8
20260906040503 78 97 7.0 13.0 0.00 0.00 0.00 76 1014.8
20260906040004 78 86 5.0 13.0 0.00 0.00 0.00 77 1014.8
20260906035503 78 85 4.0 9.0 0.00 0.00 0.00 77 1014.9
20260906035004 78 91 3.0 6.0 0.00 0.00 0.00 77 1014.9
20260906034503 78 102 3.0 5.0 0.00 0.00 0.00 77 1014.9
20260906034004 78 119 3.0 7.0 0.00 0.00 0.00 77 1014.8
20260906033503 78 112 3.0 7.0 0.00 0.00 0.00 76 1014.8
20260906033004 78 98 3.0 5.0 0.00 0.00 0.00 77 1014.9
20260906032502 77 106 1.0 5.0 0.00 0.00 0.00 78 1014.9
20260906032004 77 120 1.0 2.0 0.00 0.00 0.00 79 1014.9
20260906031502 76 121 1.0 2.0 0.00 0.00 0.00 80 1014.9
20260906031004 76 120 0.0 2.0 0.00 0.00 0.00 79 1014.9
20260906030503 77 120 0.0 2.0 0.00 0.00 0.00 79 1014.9
20260906030004 77 121 0.0 2.0 0.00 0.00 0.00 78 1015.1
20260906025503 78 109 1.0 3.0 0.00 0.00 0.00 76 1015.1
20260906025004 78 102 3.0 5.0 0.00 0.00 0.00 75 1015.0
20260906024004 79 111 4.0 9.0 0.00 0.00 0.00 74 1014.9
20260906023502 79 106 5.0 9.0 0.00 0.00 0.00 74 1014.8
20260906023004 79 101 7.0 9.0 0.00 0.00 0.00 74 1014.8
20260906022502 79 98 7.0 9.0 0.00 0.00 0.00 74 1014.9
20260906022003 79 101 7.0 10.0 0.00 0.00 0.00 73 1014.8
20260906021502 80 109 5.0 10.0 0.00 0.00 0.00 71 1014.9
20260906021004 80 117 4.0 9.0 0.00 0.00 0.00 69 1014.9
20260906020004 80 119 3.0 5.0 0.00 0.00 0.00 69 1014.7
20260906015502 81 115 3.0 5.0 0.00 0.00 0.00 69 1014.6
20260906015005 81 113 3.0 5.0 0.00 0.00 0.00 68 1014.4
20260906014502 81 118 3.0 5.0 0.00 0.00 0.00 68 1014.4
20260906014004 81 118 1.0 3.0 0.00 0.00 0.00 67 1014.2
20260906013503 81 115 3.0 5.0 0.00 0.00 0.00 67 1014.0
20260906013004 82 115 4.0 5.0 0.00 0.00 0.00 67 1014.0
20260906012503 82 114 4.0 5.0 0.00 0.00 0.00 67 1013.9
20260906012004 82 114 4.0 5.0 0.00 0.00 0.00 67 1013.8
20260906011503 82 116 4.0 5.0 0.00 0.00 0.00 67 1013.7
20260906011004 82 118 4.0 5.0 0.00 0.00 0.00 65 1013.4
20260906010503 83 121 3.0 5.0 0.00 0.00 0.00 63 1013.1
20260906010004 83 153 1.0 3.0 0.00 0.00 0.00 63 1012.9
20260906005502 83 195 3.0 7.0 0.00 0.00 0.00 64 1012.9
20260906005005 83 186 4.0 7.0 0.00 0.00 0.00 64 1012.9
20260906004004 84 189 5.0 12.0 0.00 0.00 0.00 63 1012.7
20260906003004 84 195 5.0 9.0 0.00 0.00 0.00 62 1012.6
20260906002503 84 204 5.0 10.0 0.00 0.00 0.00 63 1012.8
20260906001503 84 224 5.0 10.0 0.00 0.00 0.00 61 1013.0
20260906001004 85 224 5.0 8.0 0.00 0.00 0.00 62 1013.1
20260906000503 85 216 5.0 13.0 0.00 0.00 0.00 61 1013.1
20260906000004 85 210 5.0 13.0 0.00 0.00 0.00 61 1013.0
20260905235004 85 213 4.0 10.0 0.00 0.00 0.00 61 1013.2
20260905234503 84 197 5.0 12.0 0.00 0.00 0.00 63 1013.3
20260905234004 85 182 5.0 12.0 0.00 0.00 0.00 61 1013.4
20260905233502 85 171 5.0 10.0 0.00 0.00 0.00 63 1013.4
20260905233004 85 169 7.0 13.0 0.00 0.00 0.00 62 1013.4
20260905232503 86 169 7.0 13.0 0.00 0.00 0.00 61 1013.4
20260905232004 85 172 4.0 10.0 0.00 0.00 0.00 63 1013.4
20260905231503 85 177 4.0 8.0 0.00 0.00 0.00 64 1013.4
20260905231004 85 178 5.0 9.0 0.00 0.00 0.00 64 1013.4
20260905230005 85 171 8.0 17.0 0.00 0.00 0.00 64 1013.5
20260905225502 86 170 10.0 17.0 0.00 0.00 0.00 63 1013.6
20260905225004 86 172 8.0 15.0 0.00 0.00 0.00 62 1013.6
20260905224503 86 173 8.0 17.0 0.00 0.00 0.00 62 1013.8
20260905224004 86 168 11.0 20.0 0.00 0.00 0.00 62 1013.8
20260905223503 86 168 11.0 20.0 0.00 0.00 0.00 61 1013.8
20260905222503 86 160 10.0 20.0 0.00 0.00 0.00 60 1014.0
20260905221503 86 162 11.0 23.0 0.00 0.00 0.00 60 1014.2
20260905221004 87 159 11.0 23.0 0.00 0.00 0.00 59 1014.1
20260905220502 87 155 11.0 20.0 0.00 0.00 0.00 58 1014.1
20260905220005 86 155 12.0 21.0 0.00 0.00 0.00 59 1014.0
20260905215503 87 155 11.0 21.0 0.00 0.00 0.00 58 1014.0
20260905215004 87 148 12.0 22.0 0.00 0.00 0.00 58 1013.9
20260905214503 87 152 12.0 22.0 0.00 0.00 0.00 57 1014.0
20260905214005 87 152 12.0 23.0 0.00 0.00 0.00 58 1014.1
20260905213503 87 149 12.0 23.0 0.00 0.00 0.00 58 1014.3
20260905213004 87 153 12.0 22.0 0.00 0.00 0.00 58 1014.3
20260905212004 87 155 16.0 26.0 0.00 0.00 0.00 61 1014.3
20260905211503 86 162 16.0 26.0 0.00 0.00 0.00 59 1014.3
20260905210502 87 160 14.0 26.0 0.00 0.00 0.00 58 1014.6
20260905210005 88 167 12.0 30.0 0.00 0.00 0.00 58 1014.8
20260905204004 87 155 15.0 26.0 0.00 0.00 0.00 59 1014.6
20260905203503 87 158 16.0 33.0 0.00 0.00 0.00 58 1014.8
20260905203004 86 156 16.0 33.0 0.00 0.00 0.00 57 1014.9